sensor_id;sensor_type;location;lat;lon;timestamp;temperature;humidity
4429;DHT22;2227;47.810;8.810;2022-07-23T04:33:30;19.70;99.90
4429;DHT22;2227;47.810;8.810;2022-07-23T04:35:57;19.70;99.90
4429;DHT22;2227;47.810;8.810;2022-07-23T04:38:24;19.80;99.90
4429;DHT22;2227;47.810;8.810;2022-07-23T04:40:51;19.90;99.90
4429;DHT22;2227;47.810;8.810;2022-07-23T04:43:18;20.00;99.90
4429;DHT22;2227;47.810;8.810;2022-07-23T04:45:45;20.10;99.90
4429;DHT22;2227;47.810;8.810;2022-07-23T04:48:12;20.00;99.90
4429;DHT22;2227;47.810;8.810;2022-07-23T04:50:39;20.00;99.90
4429;DHT22;2227;47.810;8.810;2022-07-23T04:53:06;20.10;99.90
4429;DHT22;2227;47.810;8.810;2022-07-23T04:55:33;20.00;99.90
4429;DHT22;2227;47.810;8.810;2022-07-23T04:58:00;19.70;99.90
4429;DHT22;2227;47.810;8.810;2022-07-23T05:00:26;19.80;99.90
4429;DHT22;2227;47.810;8.810;2022-07-23T05:02:53;19.70;99.90
4429;DHT22;2227;47.810;8.810;2022-07-23T05:05:20;19.80;99.90
4429;DHT22;2227;47.810;8.810;2022-07-23T05:07:47;19.80;99.90
4429;DHT22;2227;47.810;8.810;2022-07-23T05:10:14;19.80;99.90
4429;DHT22;2227;47.810;8.810;2022-07-23T05:12:41;19.70;99.90
4429;DHT22;2227;47.810;8.810;2022-07-23T05:15:08;19.60;99.90
4429;DHT22;2227;47.810;8.810;2022-07-23T05:17:35;19.40;99.90
4429;DHT22;2227;47.810;8.810;2022-07-23T05:20:02;19.40;99.90
4429;DHT22;2227;47.810;8.810;2022-07-23T05:22:29;19.40;99.90
4429;DHT22;2227;47.810;8.810;2022-07-23T05:24:56;19.40;99.90
4429;DHT22;2227;47.810;8.810;2022-07-23T05:27:23;19.50;99.90
4429;DHT22;2227;47.810;8.810;2022-07-23T05:29:50;19.50;99.90
4429;DHT22;2227;47.810;8.810;2022-07-23T05:32:16;19.50;99.90
4429;DHT22;2227;47.810;8.810;2022-07-23T05:34:43;19.70;99.90
4429;DHT22;2227;47.810;8.810;2022-07-23T05:37:10;19.70;99.90
4429;DHT22;2227;47.810;8.810;2022-07-23T05:39:37;19.70;99.90
4429;DHT22;2227;47.810;8.810;2022-07-23T05:42:04;19.80;99.90
4429;DHT22;2227;47.810;8.810;2022-07-23T05:44:31;19.80;99.90
4429;DHT22;2227;47.810;8.810;2022-07-23T05:47:01;19.80;99.90
4429;DHT22;2227;47.810;8.810;2022-07-23T05:49:28;19.80;99.90
4429;DHT22;2227;47.810;8.810;2022-07-23T05:51:56;19.90;99.90
4429;DHT22;2227;47.810;8.810;2022-07-23T05:54:23;20.00;99.90
4429;DHT22;2227;47.810;8.810;2022-07-23T05:56:50;20.10;99.90
4429;DHT22;2227;47.810;8.810;2022-07-23T05:59:16;20.20;99.90
4429;DHT22;2227;47.810;8.810;2022-07-23T06:01:43;20.50;99.90
4429;DHT22;2227;47.810;8.810;2022-07-23T06:04:10;20.60;99.90
4429;DHT22;2227;47.810;8.810;2022-07-23T06:06:37;20.70;99.90
4429;DHT22;2227;47.810;8.810;2022-07-23T06:09:04;20.80;99.90
4429;DHT22;2227;47.810;8.810;2022-07-23T06:11:31;20.80;99.90
4429;DHT22;2227;47.810;8.810;2022-07-23T06:13:58;21.00;99.90
4429;DHT22;2227;47.810;8.810;2022-07-23T06:16:25;21.00;99.90
4429;DHT22;2227;47.810;8.810;2022-07-23T06:18:52;21.10;99.90
4429;DHT22;2227;47.810;8.810;2022-07-23T06:21:19;21.20;99.90
4429;DHT22;2227;47.810;8.810;2022-07-23T06:24:07;21.30;99.90
4429;DHT22;2227;47.810;8.810;2022-07-23T06:26:41;21.40;99.90
4429;DHT22;2227;47.810;8.810;2022-07-23T06:29:08;21.40;99.90
4429;DHT22;2227;47.810;8.810;2022-07-23T06:31:35;21.50;99.90
4429;DHT22;2227;47.810;8.810;2022-07-23T06:34:02;21.60;99.90
4429;DHT22;2227;47.810;8.810;2022-07-23T06:36:29;21.70;99.90
4429;DHT22;2227;47.810;8.810;2022-07-23T06:38:56;21.80;99.90
4429;DHT22;2227;47.810;8.810;2022-07-23T06:41:23;21.80;99.90
4429;DHT22;2227;47.810;8.810;2022-07-23T06:43:50;21.90;99.90
4429;DHT22;2227;47.810;8.810;2022-07-23T06:46:17;21.90;99.90
4429;DHT22;2227;47.810;8.810;2022-07-23T06:48:44;21.90;99.90
4429;DHT22;2227;47.810;8.810;2022-07-23T06:51:11;22.00;99.90
4429;DHT22;2227;47.810;8.810;2022-07-23T06:53:38;22.10;99.90
4429;DHT22;2227;47.810;8.810;2022-07-23T06:56:05;22.10;99.90
4429;DHT22;2227;47.810;8.810;2022-07-23T06:58:32;22.00;99.90
4429;DHT22;2227;47.810;8.810;2022-07-23T07:00:59;22.00;99.90
4429;DHT22;2227;47.810;8.810;2022-07-23T07:03:26;22.00;99.90
4429;DHT22;2227;47.810;8.810;2022-07-23T07:05:53;22.10;99.90
4429;DHT22;2227;47.810;8.810;2022-07-23T07:08:20;22.10;99.90
4429;DHT22;2227;47.810;8.810;2022-07-23T07:10:47;22.10;99.90
4429;DHT22;2227;47.810;8.810;2022-07-23T07:13:14;22.10;99.90
4429;DHT22;2227;47.810;8.810;2022-07-23T07:15:41;22.10;99.90
4429;DHT22;2227;47.810;8.810;2022-07-23T07:18:08;22.10;99.90
4429;DHT22;2227;47.810;8.810;2022-07-23T07:20:34;22.20;99.90
4429;DHT22;2227;47.810;8.810;2022-07-23T07:23:01;22.10;99.90
4429;DHT22;2227;47.810;8.810;2022-07-23T07:25:28;22.00;99.90
4429;DHT22;2227;47.810;8.810;2022-07-23T07:27:56;22.00;99.90
4429;DHT22;2227;47.810;8.810;2022-07-23T07:30:23;22.10;99.90
4429;DHT22;2227;47.810;8.810;2022-07-23T07:32:50;22.10;99.90
4429;DHT22;2227;47.810;8.810;2022-07-23T07:35:25;22.00;99.90
4429;DHT22;2227;47.810;8.810;2022-07-23T07:37:52;21.80;99.90
4429;DHT22;2227;47.810;8.810;2022-07-23T07:40:19;21.70;99.90
4429;DHT22;2227;47.810;8.810;2022-07-23T07:42:51;21.60;99.90
4429;DHT22;2227;47.810;8.810;2022-07-23T07:45:22;21.60;99.90
4429;DHT22;2227;47.810;8.810;2022-07-23T07:47:50;21.70;99.90
4429;DHT22;2227;47.810;8.810;2022-07-23T07:50:18;21.80;99.90
4429;DHT22;2227;47.810;8.810;2022-07-23T07:52:45;21.80;99.90
4429;DHT22;2227;47.810;8.810;2022-07-23T07:55:12;21.90;99.90
4429;DHT22;2227;47.810;8.810;2022-07-23T07:57:40;22.00;99.90
4429;DHT22;2227;47.810;8.810;2022-07-23T08:00:09;22.20;99.90
4429;DHT22;2227;47.810;8.810;2022-07-23T08:02:45;22.30;99.90
4429;DHT22;2227;47.810;8.810;2022-07-23T08:05:13;22.30;99.90
4429;DHT22;2227;47.810;8.810;2022-07-23T08:07:40;22.20;99.90
4429;DHT22;2227;47.810;8.810;2022-07-23T08:10:08;21.90;99.90
4429;DHT22;2227;47.810;8.810;2022-07-23T08:12:44;21.80;99.90
4429;DHT22;2227;47.810;8.810;2022-07-23T08:15:13;21.90;99.90
4429;DHT22;2227;47.810;8.810;2022-07-23T08:17:41;22.00;99.90
4429;DHT22;2227;47.810;8.810;2022-07-23T08:20:10;22.30;99.90
4429;DHT22;2227;47.810;8.810;2022-07-23T08:22:51;22.60;99.90
4429;DHT22;2227;47.810;8.810;2022-07-23T08:25:32;22.90;99.90
4429;DHT22;2227;47.810;8.810;2022-07-23T08:28:04;23.00;99.90
4429;DHT22;2227;47.810;8.810;2022-07-23T08:30:32;23.20;99.90
4429;DHT22;2227;47.810;8.810;2022-07-23T08:33:02;23.20;99.90
4429;DHT22;2227;47.810;8.810;2022-07-23T08:35:34;23.20;99.90
4429;DHT22;2227;47.810;8.810;2022-07-23T08:38:03;23.00;99.90
4429;DHT22;2227;47.810;8.810;2022-07-23T08:40:32;22.80;99.90
4429;DHT22;2227;47.810;8.810;2022-07-23T08:43:03;22.80;99.90
4429;DHT22;2227;47.810;8.810;2022-07-23T08:45:30;23.10;99.90
4429;DHT22;2227;47.810;8.810;2022-07-23T08:47:59;23.50;99.90
4429;DHT22;2227;47.810;8.810;2022-07-23T08:50:32;23.70;99.90
4429;DHT22;2227;47.810;8.810;2022-07-23T08:53:05;23.80;99.90
4429;DHT22;2227;47.810;8.810;2022-07-23T08:55:32;24.00;99.90
4429;DHT22;2227;47.810;8.810;2022-07-23T08:57:59;24.00;99.90
4429;DHT22;2227;47.810;8.810;2022-07-23T09:00:26;24.00;99.90
4429;DHT22;2227;47.810;8.810;2022-07-23T09:02:53;23.50;99.90
4429;DHT22;2227;47.810;8.810;2022-07-23T09:05:20;23.50;99.90
4429;DHT22;2227;47.810;8.810;2022-07-23T09:08:07;23.40;99.90
4429;DHT22;2227;47.810;8.810;2022-07-23T09:13:28;23.20;99.90
4429;DHT22;2227;47.810;8.810;2022-07-23T09:15:58;23.00;99.90
4429;DHT22;2227;47.810;8.810;2022-07-23T09:18:30;22.80;99.90
4429;DHT22;2227;47.810;8.810;2022-07-23T09:21:33;22.90;99.90
4429;DHT22;2227;47.810;8.810;2022-07-23T09:29:02;22.80;99.90
4429;DHT22;2227;47.810;8.810;2022-07-23T09:34:19;22.90;99.90
4429;DHT22;2227;47.810;8.810;2022-07-23T09:36:51;22.70;99.90
4429;DHT22;2227;47.810;8.810;2022-07-23T09:39:30;22.50;99.90
4429;DHT22;2227;47.810;8.810;2022-07-23T09:41:58;22.20;99.90
4429;DHT22;2227;47.810;8.810;2022-07-23T09:44:43;21.90;99.90
4429;DHT22;2227;47.810;8.810;2022-07-23T09:47:10;21.80;99.90
4429;DHT22;2227;47.810;8.810;2022-07-23T09:49:37;21.70;99.90
4429;DHT22;2227;47.810;8.810;2022-07-23T09:52:05;21.70;99.90
4429;DHT22;2227;47.810;8.810;2022-07-23T09:54:37;21.60;99.90
4429;DHT22;2227;47.810;8.810;2022-07-23T09:57:09;21.80;99.90
4429;DHT22;2227;47.810;8.810;2022-07-23T09:59:39;22.20;99.90
4429;DHT22;2227;47.810;8.810;2022-07-23T10:02:07;22.60;99.90
4429;DHT22;2227;47.810;8.810;2022-07-23T10:04:35;23.00;99.90
4429;DHT22;2227;47.810;8.810;2022-07-23T10:07:08;23.50;99.90
4429;DHT22;2227;47.810;8.810;2022-07-23T10:09:38;24.10;99.90
4429;DHT22;2227;47.810;8.810;2022-07-23T10:12:10;24.50;99.90
4429;DHT22;2227;47.810;8.810;2022-07-23T10:14:43;24.30;99.90
4429;DHT22;2227;47.810;8.810;2022-07-23T10:17:10;24.40;99.90
4429;DHT22;2227;47.810;8.810;2022-07-23T10:19:37;24.80;99.90
4429;DHT22;2227;47.810;8.810;2022-07-23T10:22:14;25.10;99.90
4429;DHT22;2227;47.810;8.810;2022-07-23T10:30:45;25.10;99.90
4429;DHT22;2227;47.810;8.810;2022-07-23T10:33:56;25.10;99.90
4429;DHT22;2227;47.810;8.810;2022-07-23T10:39:24;25.60;99.90
4429;DHT22;2227;47.810;8.810;2022-07-23T10:41:52;25.50;99.90
4429;DHT22;2227;47.810;8.810;2022-07-23T10:44:21;25.40;99.90
4429;DHT22;2227;47.810;8.810;2022-07-23T10:47:01;25.30;99.90
4429;DHT22;2227;47.810;8.810;2022-07-23T10:49:35;25.20;99.90
4429;DHT22;2227;47.810;8.810;2022-07-23T10:57:11;24.90;99.90
4429;DHT22;2227;47.810;8.810;2022-07-23T11:02:29;25.10;99.90
4429;DHT22;2227;47.810;8.810;2022-07-23T11:05:21;25.40;99.90
4429;DHT22;2227;47.810;8.810;2022-07-23T11:10:39;25.90;99.90
4429;DHT22;2227;47.810;8.810;2022-07-23T11:32:04;25.30;99.90
4429;DHT22;2227;47.810;8.810;2022-07-23T11:34:39;25.70;99.90
4429;DHT22;2227;47.810;8.810;2022-07-23T11:37:09;26.30;99.90
4429;DHT22;2227;47.810;8.810;2022-07-23T11:39:37;26.70;99.90
4429;DHT22;2227;47.810;8.810;2022-07-23T11:42:06;26.70;99.90
4429;DHT22;2227;47.810;8.810;2022-07-23T11:44:39;26.70;99.90
4429;DHT22;2227;47.810;8.810;2022-07-23T11:47:10;26.70;99.90
4429;DHT22;2227;47.810;8.810;2022-07-23T11:49:53;26.90;99.90
4429;DHT22;2227;47.810;8.810;2022-07-23T11:52:20;27.10;99.90
4429;DHT22;2227;47.810;8.810;2022-07-23T11:54:53;27.60;99.90
4429;DHT22;2227;47.810;8.810;2022-07-23T11:57:28;27.80;99.90
4429;DHT22;2227;47.810;8.810;2022-07-23T11:59:58;27.90;99.90
4429;DHT22;2227;47.810;8.810;2022-07-23T12:02:27;27.70;99.90
4429;DHT22;2227;47.810;8.810;2022-07-23T12:04:54;27.80;99.90
4429;DHT22;2227;47.810;8.810;2022-07-23T12:07:29;27.80;99.90
4429;DHT22;2227;47.810;8.810;2022-07-23T12:09:58;28.00;99.90
4429;DHT22;2227;47.810;8.810;2022-07-23T12:12:26;28.20;99.90
4429;DHT22;2227;47.810;8.810;2022-07-23T12:14:56;28.30;99.90
4429;DHT22;2227;47.810;8.810;2022-07-23T12:17:31;28.30;99.90
4429;DHT22;2227;47.810;8.810;2022-07-23T12:19:59;28.50;99.90
4429;DHT22;2227;47.810;8.810;2022-07-23T12:27:35;28.50;99.90
4429;DHT22;2227;47.810;8.810;2022-07-23T12:30:19;28.50;99.90
4429;DHT22;2227;47.810;8.810;2022-07-23T12:32:49;28.60;99.90
4429;DHT22;2227;47.810;8.810;2022-07-23T12:35:17;28.60;99.90
4429;DHT22;2227;47.810;8.810;2022-07-23T12:37:45;28.80;99.90
4429;DHT22;2227;47.810;8.810;2022-07-23T12:43:07;29.40;99.90
4429;DHT22;2227;47.810;8.810;2022-07-23T12:45:46;29.60;99.90
4429;DHT22;2227;47.810;8.810;2022-07-23T12:50:56;29.30;99.90
4429;DHT22;2227;47.810;8.810;2022-07-23T12:56:09;29.10;99.90
4429;DHT22;2227;47.810;8.810;2022-07-23T12:58:51;29.20;99.90
4429;DHT22;2227;47.810;8.810;2022-07-23T13:01:22;29.40;99.90
4429;DHT22;2227;47.810;8.810;2022-07-23T13:03:58;29.60;99.80
4429;DHT22;2227;47.810;8.810;2022-07-23T13:06:28;29.50;99.90
4429;DHT22;2227;47.810;8.810;2022-07-23T13:08:57;29.80;99.50
4429;DHT22;2227;47.810;8.810;2022-07-23T13:11:24;29.70;98.70
4429;DHT22;2227;47.810;8.810;2022-07-23T13:13:51;29.70;98.90
4429;DHT22;2227;47.810;8.810;2022-07-23T13:16:19;29.90;98.90
4429;DHT22;2227;47.810;8.810;2022-07-23T13:18:47;29.70;98.50
4429;DHT22;2227;47.810;8.810;2022-07-23T13:21:15;29.60;99.20
4429;DHT22;2227;47.810;8.810;2022-07-23T13:23:43;29.70;98.80
4429;DHT22;2227;47.810;8.810;2022-07-23T13:26:10;30.10;98.30
4429;DHT22;2227;47.810;8.810;2022-07-23T13:28:37;30.50;96.90
4429;DHT22;2227;47.810;8.810;2022-07-23T13:31:04;30.70;96.30
4429;DHT22;2227;47.810;8.810;2022-07-23T13:33:31;30.60;96.60
4429;DHT22;2227;47.810;8.810;2022-07-23T13:35:58;30.30;95.90
4429;DHT22;2227;47.810;8.810;2022-07-23T13:38:26;30.30;96.50
4429;DHT22;2227;47.810;8.810;2022-07-23T13:40:53;30.70;96.00
4429;DHT22;2227;47.810;8.810;2022-07-23T13:43:22;31.20;95.80
4429;DHT22;2227;47.810;8.810;2022-07-23T13:45:50;31.40;95.80
4429;DHT22;2227;47.810;8.810;2022-07-23T13:48:19;31.20;96.10
4429;DHT22;2227;47.810;8.810;2022-07-23T13:50:47;31.20;95.70
4429;DHT22;2227;47.810;8.810;2022-07-23T13:53:17;31.00;94.90
4429;DHT22;2227;47.810;8.810;2022-07-23T13:55:45;30.60;95.40
4429;DHT22;2227;47.810;8.810;2022-07-23T13:58:15;30.60;97.10
4429;DHT22;2227;47.810;8.810;2022-07-23T14:00:45;30.40;97.30
4429;DHT22;2227;47.810;8.810;2022-07-23T14:03:21;30.20;97.10
4429;DHT22;2227;47.810;8.810;2022-07-23T14:05:53;30.30;97.00
4429;DHT22;2227;47.810;8.810;2022-07-23T14:08:22;30.80;96.10
4429;DHT22;2227;47.810;8.810;2022-07-23T14:10:49;30.70;95.60
4429;DHT22;2227;47.810;8.810;2022-07-23T14:13:16;30.60;96.30
4429;DHT22;2227;47.810;8.810;2022-07-23T14:15:47;30.50;96.50
4429;DHT22;2227;47.810;8.810;2022-07-23T14:18:16;30.40;95.80
4429;DHT22;2227;47.810;8.810;2022-07-23T14:20:43;30.50;96.30
4429;DHT22;2227;47.810;8.810;2022-07-23T14:23:10;30.40;95.90
4429;DHT22;2227;47.810;8.810;2022-07-23T14:25:38;30.30;96.00
4429;DHT22;2227;47.810;8.810;2022-07-23T14:28:05;30.30;96.40
4429;DHT22;2227;47.810;8.810;2022-07-23T14:30:34;30.30;96.50
4429;DHT22;2227;47.810;8.810;2022-07-23T14:33:02;30.10;96.60
4429;DHT22;2227;47.810;8.810;2022-07-23T14:35:29;29.70;97.10
4429;DHT22;2227;47.810;8.810;2022-07-23T14:37:56;29.50;97.40
4429;DHT22;2227;47.810;8.810;2022-07-23T14:40:23;29.40;98.00
4429;DHT22;2227;47.810;8.810;2022-07-23T14:42:50;29.20;98.40
4429;DHT22;2227;47.810;8.810;2022-07-23T14:45:17;29.10;98.30
4429;DHT22;2227;47.810;8.810;2022-07-23T14:47:45;29.20;98.10
4429;DHT22;2227;47.810;8.810;2022-07-23T14:50:14;29.20;98.10
4429;DHT22;2227;47.810;8.810;2022-07-23T14:52:41;29.10;98.90
4429;DHT22;2227;47.810;8.810;2022-07-23T14:55:08;29.20;98.70
4429;DHT22;2227;47.810;8.810;2022-07-23T14:57:36;29.00;99.10
4429;DHT22;2227;47.810;8.810;2022-07-23T15:00:06;28.90;99.40
4429;DHT22;2227;47.810;8.810;2022-07-23T15:02:35;29.00;99.50
4429;DHT22;2227;47.810;8.810;2022-07-23T15:05:02;29.20;99.10
4429;DHT22;2227;47.810;8.810;2022-07-23T15:07:33;29.10;98.90
4429;DHT22;2227;47.810;8.810;2022-07-23T15:09:59;29.20;98.50
4429;DHT22;2227;47.810;8.810;2022-07-23T15:12:28;29.20;98.80
4429;DHT22;2227;47.810;8.810;2022-07-23T15:14:55;29.20;98.90
4429;DHT22;2227;47.810;8.810;2022-07-23T15:17:22;29.30;98.60
4429;DHT22;2227;47.810;8.810;2022-07-23T15:19:52;29.20;99.00
4429;DHT22;2227;47.810;8.810;2022-07-23T15:22:19;29.00;99.30
4429;DHT22;2227;47.810;8.810;2022-07-23T15:24:47;28.80;99.60
4429;DHT22;2227;47.810;8.810;2022-07-23T15:27:14;28.50;99.90
4429;DHT22;2227;47.810;8.810;2022-07-23T15:29:44;28.30;99.90
4429;DHT22;2227;47.810;8.810;2022-07-23T15:32:11;28.00;99.90
4429;DHT22;2227;47.810;8.810;2022-07-23T15:34:39;27.80;99.90
4429;DHT22;2227;47.810;8.810;2022-07-23T15:37:06;27.80;99.90
4429;DHT22;2227;47.810;8.810;2022-07-23T15:39:39;27.90;99.90
4429;DHT22;2227;47.810;8.810;2022-07-23T15:42:07;27.80;99.90
4429;DHT22;2227;47.810;8.810;2022-07-23T15:44:41;28.00;99.90
4429;DHT22;2227;47.810;8.810;2022-07-23T15:47:13;28.00;99.90
4429;DHT22;2227;47.810;8.810;2022-07-23T15:49:41;28.00;99.90
4429;DHT22;2227;47.810;8.810;2022-07-23T15:52:08;28.00;99.90
4429;DHT22;2227;47.810;8.810;2022-07-23T15:54:38;27.90;99.90
4429;DHT22;2227;47.810;8.810;2022-07-23T15:57:06;27.90;99.90
4429;DHT22;2227;47.810;8.810;2022-07-23T15:59:34;27.90;99.90
4429;DHT22;2227;47.810;8.810;2022-07-23T16:02:01;27.90;99.90
4429;DHT22;2227;47.810;8.810;2022-07-23T16:04:28;27.80;99.90
4429;DHT22;2227;47.810;8.810;2022-07-23T16:06:55;27.80;99.90
4429;DHT22;2227;47.810;8.810;2022-07-23T16:09:22;27.90;99.90
4429;DHT22;2227;47.810;8.810;2022-07-23T16:11:49;27.90;99.90
4429;DHT22;2227;47.810;8.810;2022-07-23T16:14:17;27.80;99.90
4429;DHT22;2227;47.810;8.810;2022-07-23T16:16:43;27.90;99.90
4429;DHT22;2227;47.810;8.810;2022-07-23T16:19:10;28.00;99.90
4429;DHT22;2227;47.810;8.810;2022-07-23T16:21:38;28.00;99.90
4429;DHT22;2227;47.810;8.810;2022-07-23T16:24:06;28.10;99.90
4429;DHT22;2227;47.810;8.810;2022-07-23T16:26:33;28.20;99.90
4429;DHT22;2227;47.810;8.810;2022-07-23T16:29:00;28.20;99.90
4429;DHT22;2227;47.810;8.810;2022-07-23T16:31:27;28.10;99.90
4429;DHT22;2227;47.810;8.810;2022-07-23T16:33:57;28.00;99.90
4429;DHT22;2227;47.810;8.810;2022-07-23T16:36:24;27.90;99.90
4429;DHT22;2227;47.810;8.810;2022-07-23T16:38:51;27.90;99.90
4429;DHT22;2227;47.810;8.810;2022-07-23T16:41:18;27.90;99.90
4429;DHT22;2227;47.810;8.810;2022-07-23T16:43:45;28.00;99.90
4429;DHT22;2227;47.810;8.810;2022-07-23T16:46:13;28.00;99.90
4429;DHT22;2227;47.810;8.810;2022-07-23T16:48:40;27.90;99.90
4429;DHT22;2227;47.810;8.810;2022-07-23T16:51:07;27.80;99.90
4429;DHT22;2227;47.810;8.810;2022-07-23T16:53:35;27.80;99.90
4429;DHT22;2227;47.810;8.810;2022-07-23T16:56:04;27.80;99.90
4429;DHT22;2227;47.810;8.810;2022-07-23T16:58:31;27.90;99.90
4429;DHT22;2227;47.810;8.810;2022-07-23T17:00:58;27.90;99.90
4429;DHT22;2227;47.810;8.810;2022-07-23T17:03:25;27.80;99.90
4429;DHT22;2227;47.810;8.810;2022-07-23T17:05:55;27.80;99.90
4429;DHT22;2227;47.810;8.810;2022-07-23T17:08:22;28.00;99.90
4429;DHT22;2227;47.810;8.810;2022-07-23T17:10:53;28.00;99.90
4429;DHT22;2227;47.810;8.810;2022-07-23T17:13:20;28.00;99.90
4429;DHT22;2227;47.810;8.810;2022-07-23T17:15:47;28.00;99.90
4429;DHT22;2227;47.810;8.810;2022-07-23T17:18:14;28.10;99.90
4429;DHT22;2227;47.810;8.810;2022-07-23T17:20:41;28.10;99.90
4429;DHT22;2227;47.810;8.810;2022-07-23T17:23:08;28.00;99.90
4429;DHT22;2227;47.810;8.810;2022-07-23T17:25:35;27.80;99.90
4429;DHT22;2227;47.810;8.810;2022-07-23T17:28:04;27.50;99.90
4429;DHT22;2227;47.810;8.810;2022-07-23T17:30:32;27.20;99.90
4429;DHT22;2227;47.810;8.810;2022-07-23T17:32:59;27.10;99.90
4429;DHT22;2227;47.810;8.810;2022-07-23T17:35:32;27.10;99.90
4429;DHT22;2227;47.810;8.810;2022-07-23T17:37:59;26.90;99.90
4429;DHT22;2227;47.810;8.810;2022-07-23T17:40:26;26.90;99.90
4429;DHT22;2227;47.810;8.810;2022-07-23T17:42:53;27.00;99.90
4429;DHT22;2227;47.810;8.810;2022-07-23T17:45:20;27.10;99.90
4429;DHT22;2227;47.810;8.810;2022-07-23T17:47:48;27.20;99.90
4429;DHT22;2227;47.810;8.810;2022-07-23T17:50:15;27.30;99.90
4429;DHT22;2227;47.810;8.810;2022-07-23T17:52:55;27.40;99.90
4429;DHT22;2227;47.810;8.810;2022-07-23T17:55:23;27.40;99.90
4429;DHT22;2227;47.810;8.810;2022-07-23T17:57:52;27.40;99.90
4429;DHT22;2227;47.810;8.810;2022-07-23T18:00:23;27.40;99.90
4429;DHT22;2227;47.810;8.810;2022-07-23T18:02:50;27.40;99.90
4429;DHT22;2227;47.810;8.810;2022-07-23T18:05:17;27.30;99.90
4429;DHT22;2227;47.810;8.810;2022-07-23T18:07:43;27.30;99.90
4429;DHT22;2227;47.810;8.810;2022-07-23T18:10:11;27.20;99.90
4429;DHT22;2227;47.810;8.810;2022-07-23T18:12:39;27.20;99.90
4429;DHT22;2227;47.810;8.810;2022-07-23T18:15:06;27.10;99.90
4429;DHT22;2227;47.810;8.810;2022-07-23T18:17:34;27.10;99.90
4429;DHT22;2227;47.810;8.810;2022-07-23T18:20:03;27.00;99.90
4429;DHT22;2227;47.810;8.810;2022-07-23T18:22:30;27.00;99.90
4429;DHT22;2227;47.810;8.810;2022-07-23T18:24:56;27.00;99.90
4429;DHT22;2227;47.810;8.810;2022-07-23T18:27:23;27.00;99.90
4429;DHT22;2227;47.810;8.810;2022-07-23T18:29:50;27.00;99.90
4429;DHT22;2227;47.810;8.810;2022-07-23T18:32:17;27.10;99.90
4429;DHT22;2227;47.810;8.810;2022-07-23T18:34:44;27.10;99.90
4429;DHT22;2227;47.810;8.810;2022-07-23T18:37:11;27.10;99.90
4429;DHT22;2227;47.810;8.810;2022-07-23T18:39:59;27.00;99.90
4429;DHT22;2227;47.810;8.810;2022-07-23T18:42:26;27.00;99.90
4429;DHT22;2227;47.810;8.810;2022-07-23T18:44:54;26.90;99.90
4429;DHT22;2227;47.810;8.810;2022-07-23T18:47:21;26.90;99.90
4429;DHT22;2227;47.810;8.810;2022-07-23T18:49:48;26.80;99.90
4429;DHT22;2227;47.810;8.810;2022-07-23T18:52:15;26.80;99.90
4429;DHT22;2227;47.810;8.810;2022-07-23T18:54:42;26.70;99.90
4429;DHT22;2227;47.810;8.810;2022-07-23T18:57:09;26.60;99.90
4429;DHT22;2227;47.810;8.810;2022-07-23T18:59:36;26.40;99.90
4429;DHT22;2227;47.810;8.810;2022-07-23T19:02:03;26.40;99.90
4429;DHT22;2227;47.810;8.810;2022-07-23T19:04:31;26.20;99.90
4429;DHT22;2227;47.810;8.810;2022-07-23T19:06:58;25.90;99.90
4429;DHT22;2227;47.810;8.810;2022-07-23T19:09:25;25.70;99.90
4429;DHT22;2227;47.810;8.810;2022-07-23T19:11:55;25.60;99.90
4429;DHT22;2227;47.810;8.810;2022-07-23T19:14:22;25.60;99.90
4429;DHT22;2227;47.810;8.810;2022-07-23T19:16:49;25.60;99.90
4429;DHT22;2227;47.810;8.810;2022-07-23T19:19:16;25.70;99.90
4429;DHT22;2227;47.810;8.810;2022-07-23T19:21:43;25.70;99.90
4429;DHT22;2227;47.810;8.810;2022-07-23T19:24:10;25.50;99.90
4429;DHT22;2227;47.810;8.810;2022-07-23T19:26:37;25.30;99.90
4429;DHT22;2227;47.810;8.810;2022-07-23T19:29:04;25.20;99.90
4429;DHT22;2227;47.810;8.810;2022-07-23T19:31:32;25.20;99.90
4429;DHT22;2227;47.810;8.810;2022-07-23T19:33:59;25.20;99.90
4429;DHT22;2227;47.810;8.810;2022-07-23T19:36:26;25.20;99.90
4429;DHT22;2227;47.810;8.810;2022-07-23T19:38:53;25.20;99.90
4429;DHT22;2227;47.810;8.810;2022-07-23T19:41:19;25.30;99.90
4429;DHT22;2227;47.810;8.810;2022-07-23T19:43:46;25.20;99.90
4429;DHT22;2227;47.810;8.810;2022-07-23T19:46:13;25.30;99.90
4429;DHT22;2227;47.810;8.810;2022-07-23T19:48:40;25.30;99.90
4429;DHT22;2227;47.810;8.810;2022-07-23T19:51:07;25.40;99.90
4429;DHT22;2227;47.810;8.810;2022-07-23T19:53:34;25.30;99.90
4429;DHT22;2227;47.810;8.810;2022-07-23T19:56:00;25.30;99.90
4429;DHT22;2227;47.810;8.810;2022-07-23T19:58:27;25.30;99.90
4429;DHT22;2227;47.810;8.810;2022-07-23T20:00:54;25.20;99.90
4429;DHT22;2227;47.810;8.810;2022-07-23T20:03:21;25.20;99.90
4429;DHT22;2227;47.810;8.810;2022-07-23T20:05:48;25.20;99.90
4429;DHT22;2227;47.810;8.810;2022-07-23T20:08:15;25.20;99.90
4429;DHT22;2227;47.810;8.810;2022-07-23T20:10:44;25.10;99.90
4429;DHT22;2227;47.810;8.810;2022-07-23T20:13:11;24.90;99.90
4429;DHT22;2227;47.810;8.810;2022-07-23T20:15:39;24.70;99.90
4429;DHT22;2227;47.810;8.810;2022-07-23T20:18:06;24.60;99.90
4429;DHT22;2227;47.810;8.810;2022-07-23T20:20:33;24.50;99.90
4429;DHT22;2227;47.810;8.810;2022-07-23T20:22:59;24.40;99.90
4429;DHT22;2227;47.810;8.810;2022-07-23T20:25:26;24.40;99.90
4429;DHT22;2227;47.810;8.810;2022-07-23T20:27:53;24.40;99.90
4429;DHT22;2227;47.810;8.810;2022-07-23T20:30:22;24.40;99.90
4429;DHT22;2227;47.810;8.810;2022-07-23T20:32:49;24.20;99.90
4429;DHT22;2227;47.810;8.810;2022-07-23T20:35:15;24.10;99.90
4429;DHT22;2227;47.810;8.810;2022-07-23T20:37:42;24.10;99.90
4429;DHT22;2227;47.810;8.810;2022-07-23T20:40:09;24.20;99.90
4429;DHT22;2227;47.810;8.810;2022-07-23T20:42:36;24.20;99.90
4429;DHT22;2227;47.810;8.810;2022-07-23T20:45:04;24.20;99.90
4429;DHT22;2227;47.810;8.810;2022-07-23T20:47:31;24.20;99.90
4429;DHT22;2227;47.810;8.810;2022-07-23T20:49:57;24.20;99.90
4429;DHT22;2227;47.810;8.810;2022-07-23T20:52:24;24.20;99.90
4429;DHT22;2227;47.810;8.810;2022-07-23T20:54:52;24.20;99.90
4429;DHT22;2227;47.810;8.810;2022-07-23T20:57:18;24.30;99.90
4429;DHT22;2227;47.810;8.810;2022-07-23T20:59:46;24.40;99.90
4429;DHT22;2227;47.810;8.810;2022-07-23T21:02:12;24.40;99.90
4429;DHT22;2227;47.810;8.810;2022-07-23T21:04:39;24.40;99.90
4429;DHT22;2227;47.810;8.810;2022-07-23T21:07:12;24.50;99.90
4429;DHT22;2227;47.810;8.810;2022-07-23T21:09:44;24.50;99.90
4429;DHT22;2227;47.810;8.810;2022-07-23T21:12:11;24.40;99.90
4429;DHT22;2227;47.810;8.810;2022-07-23T21:14:42;24.40;99.90
4429;DHT22;2227;47.810;8.810;2022-07-23T21:17:10;24.40;99.90
4429;DHT22;2227;47.810;8.810;2022-07-23T21:19:37;24.40;99.90
4429;DHT22;2227;47.810;8.810;2022-07-23T21:22:04;24.40;99.90
4429;DHT22;2227;47.810;8.810;2022-07-23T21:24:31;24.40;99.90
4429;DHT22;2227;47.810;8.810;2022-07-23T21:26:58;24.40;99.90
4429;DHT22;2227;47.810;8.810;2022-07-23T21:29:25;24.40;99.90
4429;DHT22;2227;47.810;8.810;2022-07-23T21:31:53;24.40;99.90
4429;DHT22;2227;47.810;8.810;2022-07-23T21:34:22;24.40;99.90
4429;DHT22;2227;47.810;8.810;2022-07-23T21:36:49;24.40;99.90
4429;DHT22;2227;47.810;8.810;2022-07-23T21:39:16;24.30;99.90
4429;DHT22;2227;47.810;8.810;2022-07-23T21:41:43;24.20;99.90
4429;DHT22;2227;47.810;8.810;2022-07-23T21:44:12;24.20;99.90
4429;DHT22;2227;47.810;8.810;2022-07-23T21:46:39;24.10;99.90